createdAt,value
2023-05-09T00:04:28.306Z,12.67
2023-05-09T00:10:38.945Z,12.51
2023-05-09T00:15:35.440Z,12.51
2023-05-09T00:20:31.933Z,12.44
2023-05-09T00:25:28.521Z,12.36
2023-05-09T00:31:39.188Z,12.36
2023-05-09T00:36:35.831Z,12.44
2023-05-09T00:41:32.263Z,12.44
2023-05-09T00:46:28.892Z,12.44
2023-05-09T00:52:39.462Z,12.44
2023-05-09T00:57:36.049Z,12.44
2023-05-09T01:02:32.695Z,12.51
2023-05-09T01:07:29.159Z,12.44
2023-05-09T01:13:39.721Z,12.28
2023-05-09T01:18:36.298Z,12.28
2023-05-09T01:23:32.937Z,12.21
2023-05-09T01:28:29.402Z,12.36
2023-05-09T01:34:39.992Z,12.51
2023-05-09T01:39:36.624Z,12.51
2023-05-09T01:44:33.063Z,12.67
2023-05-09T01:49:29.606Z,12.67
2023-05-09T01:55:40.493Z,12.82
2023-05-09T02:00:36.811Z,12.82
2023-05-09T02:05:33.280Z,12.82
2023-05-09T02:10:29.913Z,12.74
2023-05-09T02:16:40.549Z,12.82
2023-05-09T02:21:37.071Z,12.74
2023-05-09T02:26:33.649Z,12.74
2023-05-09T02:31:30.125Z,12.74
2023-05-09T02:37:40.740Z,12.67
2023-05-09T02:42:37.332Z,12.59
2023-05-09T02:47:33.965Z,12.51
2023-05-09T02:52:30.354Z,12.51
2023-05-09T02:58:41.032Z,12.51
2023-05-09T03:03:37.829Z,12.51
2023-05-09T03:08:34.134Z,12.44
2023-05-09T03:13:30.588Z,12.51
2023-05-09T03:18:27.175Z,12.59
2023-05-09T03:24:37.914Z,12.51
2023-05-09T03:29:34.340Z,12.44
2023-05-09T03:34:31.025Z,12.51
2023-05-09T03:39:27.453Z,12.51
2023-05-09T03:50:34.709Z,12.59
2023-05-09T03:55:31.233Z,12.67
2023-05-09T04:00:27.744Z,12.67
2023-05-09T04:06:38.553Z,12.67
2023-05-09T04:11:34.959Z,12.74
2023-05-09T04:16:31.475Z,12.74
2023-05-09T04:21:28.075Z,12.74
2023-05-09T04:27:38.684Z,12.67
2023-05-09T04:32:35.295Z,12.67
2023-05-09T04:36:17.613Z,12.82
2023-05-09T04:37:31.678Z,12.82
2023-05-09T04:40:00.051Z,12.82
2023-05-09T04:42:28.235Z,12.9
2023-05-09T04:48:38.975Z,12.98
2023-05-09T04:53:35.610Z,12.98
2023-05-09T04:58:31.998Z,13.06
2023-05-09T05:03:28.626Z,13.06
2023-05-09T05:09:39.252Z,13.06
2023-05-09T05:14:35.732Z,13.14
2023-05-09T05:19:32.218Z,13.22
2023-05-09T05:24:28.789Z,13.14
2023-05-09T05:30:39.604Z,13.22
2023-05-09T05:35:36.130Z,13.22
2023-05-09T05:40:32.687Z,13.22
2023-05-09T05:45:29.079Z,13.22
2023-05-09T05:51:39.783Z,13.38
2023-05-09T05:56:36.265Z,13.46
2023-05-09T06:01:32.870Z,13.71
2023-05-09T06:06:29.447Z,13.96
2023-05-09T06:12:40.066Z,14.21
2023-05-09T06:17:36.572Z,14.21
2023-05-09T06:22:33.135Z,14.21
2023-05-09T06:27:29.623Z,14.04
2023-05-09T06:33:40.238Z,14.13
2023-05-09T06:38:36.841Z,14.04
2023-05-09T06:43:33.324Z,14.04
2023-05-09T06:48:29.894Z,14.21
2023-05-09T06:54:40.509Z,14.65
2023-05-09T06:59:37.095Z,14.65
2023-05-09T07:04:33.650Z,14.65
2023-05-09T07:09:30.125Z,14.82
2023-05-09T07:15:42.436Z,14.82
2023-05-09T07:20:37.469Z,14.82
2023-05-09T07:25:33.949Z,15.45
2023-05-09T07:30:30.444Z,15.73
2023-05-09T07:35:26.916Z,15.45
2023-05-09T07:41:37.598Z,16.11
2023-05-09T07:46:34.165Z,16.4
2023-05-09T07:51:30.609Z,16.89
2023-05-09T07:57:41.294Z,16.5
2023-05-09T08:02:38.049Z,16.3
2023-05-09T08:07:34.507Z,16.01
2023-05-09T08:12:30.923Z,16.5
2023-05-09T08:18:41.571Z,16.4
2023-05-09T08:23:38.147Z,16.69
2023-05-09T08:28:34.768Z,16.99
2023-05-09T08:33:31.167Z,17.09
2023-05-09T08:39:41.947Z,17.49
2023-05-09T08:44:38.407Z,18.12
2023-05-09T08:54:31.467Z,17.7
2023-05-09T08:59:28.030Z,17.49
2023-05-09T09:05:42.259Z,17.32
2023-05-09T09:10:35.225Z,17.25
2023-05-09T09:15:31.759Z,16.69
2023-05-09T09:20:28.274Z,16.89
2023-05-09T09:26:38.967Z,16.74
2023-05-09T09:31:35.545Z,16.88
2023-05-09T09:36:31.995Z,17.53
2023-05-09T09:41:28.553Z,17.31
2023-05-09T09:47:39.352Z,15.75
2023-05-09T09:52:35.920Z,14.9
2023-05-09T09:57:32.292Z,14.84
2023-05-09T10:02:28.944Z,15.13
2023-05-09T10:08:39.665Z,15.53
2023-05-09T10:13:35.999Z,16.55
2023-05-09T10:18:32.724Z,15.92
2023-05-09T10:23:29.143Z,15.98
2023-05-09T10:29:39.825Z,15.5
2023-05-09T10:34:36.388Z,15.56
2023-05-09T10:39:32.971Z,15.03
2023-05-09T10:44:29.359Z,14.29
2023-05-09T10:50:40.062Z,13.94
2023-05-09T10:55:36.675Z,13.22
2023-05-09T11:00:33.171Z,13.29
2023-05-09T11:05:29.634Z,12.57
2023-05-09T11:11:40.280Z,12.26
2023-05-09T11:16:36.860Z,13
2023-05-09T11:21:33.383Z,13.15
2023-05-09T11:26:29.993Z,12.66
2023-05-09T11:32:40.644Z,13.11
2023-05-09T11:37:37.105Z,12.96
2023-05-09T11:42:33.730Z,12.79
2023-05-09T11:47:30.174Z,13.08
2023-05-09T11:53:40.868Z,13.08
2023-05-09T11:58:37.356Z,12.99
2023-05-09T12:03:34.035Z,13.32
2023-05-09T12:08:30.497Z,13.46
2023-05-09T12:14:41.118Z,13.42
2023-05-09T12:19:37.693Z,13.46
2023-05-09T12:24:34.291Z,13.36
2023-05-09T12:29:30.766Z,13.71
2023-05-09T12:35:41.436Z,13.61
2023-05-09T12:40:37.914Z,13.29
2023-05-09T12:45:34.832Z,13.04
2023-05-09T12:50:30.943Z,13.33
2023-05-09T12:55:27.606Z,13.17
2023-05-09T13:01:38.176Z,13.08
2023-05-09T13:06:34.786Z,12.99
2023-05-09T13:11:31.215Z,13.12
2023-05-09T13:16:33.002Z,13.26
2023-05-09T13:22:38.453Z,12.47
2023-05-09T13:32:31.632Z,13.57
2023-05-09T13:37:28.088Z,13.78
2023-05-09T13:43:38.710Z,15.28
2023-05-09T13:48:35.259Z,16.14
2023-05-09T13:53:31.827Z,15.95
2023-05-09T13:58:28.318Z,15.01
2023-05-09T14:04:39.059Z,15.4
2023-05-09T14:09:35.522Z,15.41
2023-05-09T14:14:32.438Z,15.72
2023-05-09T14:19:28.666Z,16.06
2023-05-09T14:25:39.216Z,16.24
2023-05-09T14:30:35.841Z,16.53
2023-05-09T14:35:32.336Z,17.03
2023-05-09T14:40:28.865Z,16.94
2023-05-09T14:46:39.707Z,18.11
2023-05-09T14:51:36.188Z,18.2
2023-05-09T14:56:32.684Z,18.43
2023-05-09T15:01:29.486Z,18.12
2023-05-09T15:07:39.876Z,17.49
2023-05-09T15:12:36.312Z,16.99
2023-05-09T15:17:32.970Z,16.89
2023-05-09T15:22:29.429Z,16.5
2023-05-09T15:28:40.100Z,16.4
2023-05-09T15:33:36.837Z,15.83
2023-05-09T15:38:33.131Z,14.82
2023-05-09T15:43:29.665Z,14.3
2023-05-09T15:49:40.391Z,14.04
2023-05-09T15:54:36.939Z,13.79
2023-05-09T15:59:33.630Z,13.46
2023-05-09T16:04:29.883Z,13.38
2023-05-09T16:10:40.778Z,13.3
2023-05-09T16:15:37.117Z,13.14
2023-05-09T16:20:33.814Z,13.3
2023-05-09T16:25:30.179Z,13.63
2023-05-09T16:31:40.852Z,13.79
2023-05-09T16:36:37.369Z,13.79
2023-05-09T16:41:34.081Z,13.96
2023-05-09T16:46:30.878Z,13.96
2023-05-09T16:52:41.185Z,13.87
2023-05-09T16:57:37.775Z,13.87
2023-05-09T17:02:34.306Z,13.79
2023-05-09T17:07:30.672Z,13.96
2023-05-09T17:13:41.341Z,14.04
2023-05-09T17:18:38.493Z,13.96
2023-05-09T17:23:34.418Z,13.96
2023-05-09T17:28:30.941Z,13.87
2023-05-09T17:34:41.761Z,13.71
2023-05-09T17:39:38.188Z,13.63
2023-05-09T17:44:34.706Z,13.63
2023-05-09T17:49:31.261Z,13.71
2023-05-09T17:54:27.806Z,13.79
2023-05-09T18:00:38.801Z,13.87
2023-05-09T18:05:35.142Z,13.87
2023-05-09T18:10:31.495Z,13.71
2023-05-09T18:15:28.060Z,13.71
2023-05-09T18:21:38.750Z,13.71
2023-05-09T18:26:35.340Z,13.63
2023-05-09T18:31:31.810Z,13.71
2023-05-09T18:42:38.924Z,13.54
2023-05-09T18:47:35.625Z,13.63
2023-05-09T18:52:32.048Z,13.63
2023-05-09T18:57:28.585Z,13.54
2023-05-09T19:03:39.293Z,13.63
2023-05-09T19:08:35.853Z,13.71
2023-05-09T19:13:32.387Z,13.63
2023-05-09T19:18:28.815Z,13.54
2023-05-09T19:24:39.531Z,13.3
2023-05-09T19:29:36.142Z,13.38
2023-05-09T19:34:32.571Z,13.3
2023-05-09T19:39:29.133Z,13.54
2023-05-09T19:45:39.800Z,13.71
2023-05-09T19:50:36.306Z,13.54
2023-05-09T19:55:32.846Z,13.46
2023-05-09T20:00:29.366Z,13.54
2023-05-09T20:06:40.028Z,13.46
2023-05-09T20:11:36.566Z,13.71
2023-05-09T20:16:33.205Z,13.71
2023-05-09T20:21:29.625Z,12.44
2023-05-09T20:27:40.499Z,11.41
2023-05-09T20:32:38.059Z,11.2
2023-05-09T20:37:33.359Z,10.85
2023-05-09T20:42:29.894Z,10.85
2023-05-09T20:48:40.696Z,10.79
2023-05-09T20:53:37.513Z,10.79
2023-05-09T20:58:33.664Z,10.79
2023-05-09T21:03:30.227Z,10.79
2023-05-09T21:09:40.793Z,10.65
2023-05-09T21:14:37.409Z,10.65
2023-05-09T21:19:35.082Z,10.65
2023-05-09T21:24:30.399Z,10.59
2023-05-09T21:30:41.257Z,10.65
2023-05-09T21:35:37.652Z,10.59
2023-05-09T21:40:34.167Z,10.52
2023-05-09T21:45:30.793Z,10.65
2023-05-09T21:51:41.468Z,10.65
2023-05-09T21:56:37.893Z,10.59
2023-05-09T22:01:34.471Z,10.52
2023-05-09T22:06:31.000Z,10.59
2023-05-09T22:11:27.485Z,10.59
2023-05-09T22:17:38.185Z,10.59
2023-05-09T22:22:34.696Z,10.59
2023-05-09T22:27:31.208Z,10.65
2023-05-09T22:32:27.780Z,10.72
2023-05-09T22:38:38.463Z,10.65
2023-05-09T22:43:39.170Z,10.72
2023-05-09T22:48:31.454Z,10.72
2023-05-09T22:53:28.031Z,10.72
2023-05-09T22:59:38.719Z,10.65
2023-05-09T23:04:35.238Z,10.72
2023-05-09T23:09:31.819Z,10.72
2023-05-09T23:20:39.038Z,10.72
2023-05-09T23:25:35.485Z,10.72
2023-05-09T23:30:32.033Z,10.72
2023-05-09T23:35:28.537Z,10.65
2023-05-09T23:41:39.300Z,10.65
2023-05-09T23:46:35.771Z,10.65
2023-05-09T23:51:32.324Z,10.59
2023-05-09T23:56:28.877Z,10.65
